Time;durP1;ratioP1;P1;durP2;ratioP2;P2;SDS_P1;SDS_P2;PMS_P1;PMS_P2;Temp;Humidity;BMP_temperature;BMP_pressure;BME280_temperature;BME280_humidity;BME280_pressure;Samples;Min_cycle;Max_cycle;Signal;HPM_P1;HPM_P2
2022/10/05 00:01:47;;;;;;;3.33;1.20;;;;;;;;;;5038511;28;20056;-80
2022/10/05 00:04:24;;;;;;;3.28;1.70;;;;;;;;;;5035774;28;20059;-81
2022/10/05 00:06:53;;;;;;;3.17;1.50;;;;;;;;;;5039898;28;20053;-81
2022/10/05 00:09:20;;;;;;;6.03;1.50;;;;;;;;;;5039918;28;20042;-80
2022/10/05 00:11:47;;;;;;;6.47;1.83;;;;;;;;;;5041421;28;20046;-81
2022/10/05 00:14:27;;;;;;;4.47;1.98;;;;;;;;;;5038485;28;20049;-80
2022/10/05 00:16:54;;;;;;;5.90;1.60;;;;;;;;;;5038643;28;20136;-81
2022/10/05 00:19:31;;;;;;;5.32;1.50;;;;;;;;;;5038103;28;20053;-81
2022/10/05 00:22:05;;;;;;;6.10;1.60;;;;;;;;;;5039733;28;20049;-80
2022/10/05 00:24:31;;;;;;;4.20;1.20;;;;;;;;;;5022716;28;20045;-81
2022/10/05 00:26:59;;;;;;;4.13;1.30;;;;;;;;;;5020120;28;20052;-78
2022/10/05 00:29:25;;;;;;;5.63;1.15;;;;;;;;;;5035811;28;20534;-79
2022/10/05 00:31:52;;;;;;;3.45;0.98;;;;;;;;;;5035293;28;20066;-79
2022/10/05 00:34:18;;;;;;;2.88;0.95;;;;;;;;;;5033889;28;20228;-80
2022/10/05 00:36:45;;;;;;;4.78;0.95;;;;;;;;;;5034638;28;20045;-80
2022/10/05 00:39:12;;;;;;;4.40;1.00;;;;;;;;;;5033655;28;20049;-80
2022/10/05 00:41:57;;;;;;;2.88;0.95;;;;;;;;;;5033939;28;20079;-80
2022/10/05 00:44:29;;;;;;;3.97;1.13;;;;;;;;;;5033576;28;20049;-79
2022/10/05 00:47:05;;;;;;;4.75;0.90;;;;;;;;;;5032955;28;20210;-79
2022/10/05 00:49:34;;;;;;;3.97;0.88;;;;;;;;;;5015640;28;20742;-80
2022/10/05 00:52:20;;;;;;;1.08;0.75;;;;;;;;;;5032248;28;20041;-80
2022/10/05 00:54:47;;;;;;;;;;;;;;;;;;5033640;28;20045;-80
2022/10/05 00:57:13;;;;;;;;;;;;;;;;;;5031115;28;19921;-80
2022/10/05 00:59:44;;;;;;;4.93;1.02;;;;;;;;;;5050266;28;20323;-79
2022/10/05 01:02:17;;;;;;;4.45;0.88;;;;;;;;;;5034633;28;20080;-80
2022/10/05 01:05:02;;;;;;;2.28;0.93;;;;;;;;;;5050253;28;20103;-78
2022/10/05 01:07:36;;;;;;;2.53;0.82;;;;;;;;;;5050279;28;20059;-79
2022/10/05 01:10:06;;;;;;;4.87;0.90;;;;;;;;;;5051729;28;20044;-79
2022/10/05 01:12:51;;;;;;;2.50;0.80;;;;;;;;;;5052032;28;20117;-80
2022/10/05 01:15:28;;;;;;;3.80;1.05;;;;;;;;;;5052110;28;20044;-82
2022/10/05 01:17:59;;;;;;;4.78;1.02;;;;;;;;;;5050493;28;20044;-80
2022/10/05 01:20:52;;;;;;;3.75;1.10;;;;;;;;;;5049583;28;20056;-82
2022/10/05 01:23:27;;;;;;;6.15;1.05;;;;;;;;;;5043972;28;20045;-80
2022/10/05 01:26:23;;;;;;;3.33;1.00;;;;;;;;;;5050719;28;20076;-80
2022/10/05 01:28:49;;;;;;;2.72;1.08;;;;;;;;;;5027778;28;20049;-82
2022/10/05 01:31:18;;;;;;;3.08;0.90;;;;;;;;;;5050938;28;20087;-82
2022/10/05 01:33:50;;;;;;;1.75;1.10;;;;;;;;;;5044260;28;20076;-79
2022/10/05 01:36:22;;;;;;;1.42;0.77;;;;;;;;;;5032401;28;20123;-80
2022/10/05 01:38:56;;;;;;;4.63;0.90;;;;;;;;;;5029907;28;20064;-81
2022/10/05 01:41:25;;;;;;;2.28;0.98;;;;;;;;;;5013336;28;20056;-81
2022/10/05 01:43:59;;;;;;;2.00;0.90;;;;;;;;;;5012284;28;20046;-82
2022/10/05 01:46:34;;;;;;;2.85;0.90;;;;;;;;;;5030990;28;20045;-80
2022/10/05 01:49:17;;;;;;;4.15;1.20;;;;;;;;;;5030569;28;20805;-81
2022/10/05 01:51:56;;;;;;;4.95;1.02;;;;;;;;;;5030731;28;20555;-80
2022/10/05 01:54:26;;;;;;;1.70;1.02;;;;;;;;;;5030818;28;20059;-81
2022/10/05 01:57:07;;;;;;;4.32;1.35;;;;;;;;;;5033523;28;20273;-81
2022/10/05 02:00:00;;;;;;;2.55;1.20;;;;;;;;;;5035411;28;20055;-80
2022/10/05 02:02:27;;;;;;;9.88;1.50;;;;;;;;;;5038591;28;20105;-77
2022/10/05 02:05:02;;;;;;;8.40;1.30;;;;;;;;;;5051056;28;20042;-79
2022/10/05 02:07:33;;;;;;;2.13;1.37;;;;;;;;;;5034778;28;20111;-78
2022/10/05 02:10:06;;;;;;;3.42;1.27;;;;;;;;;;5053881;28;20049;-80
2022/10/05 02:12:35;;;;;;;6.75;1.50;;;;;;;;;;5041684;28;20140;-81
2022/10/05 02:15:12;;;;;;;3.60;1.45;;;;;;;;;;5035835;28;20046;-82
2022/10/05 02:17:43;;;;;;;2.83;1.70;;;;;;;;;;5018315;28;20160;-80
2022/10/05 02:20:10;;;;;;;6.03;1.45;;;;;;;;;;5055830;28;20047;-82
2022/10/05 02:22:39;;;;;;;4.07;1.70;;;;;;;;;;5053884;28;20105;-81
2022/10/05 02:25:08;;;;;;;5.50;1.40;;;;;;;;;;5040105;28;20090;-81
2022/10/05 02:27:38;;;;;;;4.25;1.58;;;;;;;;;;5033613;28;20068;-81
2022/10/05 02:30:05;;;;;;;2.55;1.35;;;;;;;;;;5034917;28;20079;-82
2022/10/05 02:32:39;;;;;;;3.95;1.70;;;;;;;;;;5034438;28;20525;-81
2022/10/05 02:35:15;;;;;;;2.42;1.50;;;;;;;;;;5034743;28;20061;-82
2022/10/05 02:37:49;;;;;;;8.57;1.40;;;;;;;;;;5039158;28;20061;-81
2022/10/05 02:40:27;;;;;;;4.03;1.30;;;;;;;;;;5035734;28;20053;-81
2022/10/05 02:43:02;;;;;;;5.68;1.63;;;;;;;;;;5038776;28;20045;-80
2022/10/05 02:45:28;;;;;;;4.63;1.48;;;;;;;;;;5046805;28;20072;-81
2022/10/05 02:47:55;;;;;;;3.28;1.30;;;;;;;;;;5043098;28;20057;-81
2022/10/05 02:50:26;;;;;;;6.50;1.45;;;;;;;;;;5045286;28;20050;-80
2022/10/05 02:53:01;;;;;;;6.35;2.20;;;;;;;;;;5044935;28;20049;-81
2022/10/05 02:55:35;;;;;;;5.72;1.80;;;;;;;;;;5044789;28;20049;-80
2022/10/05 02:58:17;;;;;;;3.40;1.70;;;;;;;;;;5048410;28;20051;-81
2022/10/05 03:00:54;;;;;;;3.97;1.50;;;;;;;;;;5048112;28;20047;-80
2022/10/05 03:03:26;;;;;;;8.48;1.77;;;;;;;;;;5067717;28;20084;-81
2022/10/05 03:06:04;;;;;;;4.40;1.77;;;;;;;;;;5064756;28;20136;-80
2022/10/05 03:08:42;;;;;;;7.03;1.50;;;;;;;;;;5052648;28;20056;-80
2022/10/05 03:11:25;;;;;;;8.25;1.65;;;;;;;;;;5053612;28;20421;-81
2022/10/05 03:14:03;;;;;;;5.55;1.50;;;;;;;;;;5053908;28;20044;-79
2022/10/05 03:16:52;;;;;;;5.22;1.80;;;;;;;;;;5053689;28;20053;-77
2022/10/05 03:19:38;;;;;;;5.35;1.90;;;;;;;;;;5039207;28;20056;-79
2022/10/05 03:22:13;;;;;;;4.57;1.90;;;;;;;;;;5052984;28;20713;-81
2022/10/05 03:24:54;;;;;;;7.47;1.92;;;;;;;;;;5053420;28;20290;-79
2022/10/05 03:27:53;;;;;;;8.25;2.20;;;;;;;;;;5034232;28;20041;-77
2022/10/05 03:30:22;;;;;;;6.88;2.08;;;;;;;;;;4998411;28;20501;-80
2022/10/05 03:32:57;;;;;;;6.05;2.00;;;;;;;;;;5042112;28;20073;-80
2022/10/05 03:35:29;;;;;;;5.30;1.80;;;;;;;;;;5022162;28;20042;-81
2022/10/05 03:38:00;;;;;;;4.30;1.73;;;;;;;;;;5033920;28;20048;-80
2022/10/05 03:40:26;;;;;;;4.15;1.70;;;;;;;;;;5052784;28;20045;-81
2022/10/05 03:42:53;;;;;;;5.85;2.00;;;;;;;;;;5051601;28;20044;-81
2022/10/05 03:45:29;;;;;;;5.85;2.03;;;;;;;;;;5053663;28;20140;-82
2022/10/05 03:47:55;;;;;;;;;;;;;;;;;;5052410;28;20045;-80
2022/10/05 03:50:39;;;;;;;4.10;1.80;;;;;;;;;;5041998;28;19928;-80
2022/10/05 03:53:13;;;;;;;9.88;1.85;;;;;;;;;;5059368;28;20056;-80
2022/10/05 03:55:42;;;;;;;4.40;1.70;;;;;;;;;;5057841;28;20067;-83
2022/10/05 03:58:18;;;;;;;8.38;1.70;;;;;;;;;;5055832;28;20056;-82
2022/10/05 04:00:47;;;;;;;15.43;2.67;;;;;;;;;;5036382;28;20049;-80
2022/10/05 04:03:35;;;;;;;3.63;1.77;;;;;;;;;;5038815;28;20132;-81
2022/10/05 04:06:06;;;;;;;4.35;2.25;;;;;;;;;;5039996;28;20050;-80
2022/10/05 04:08:58;;;;;;;8.07;2.00;;;;;;;;;;5038201;28;20061;-81
2022/10/05 04:11:31;;;;;;;4.85;1.98;;;;;;;;;;5040785;28;20050;-80
2022/10/05 04:13:57;;;;;;;3.15;1.90;;;;;;;;;;5035380;28;20045;-81
2022/10/05 04:16:28;;;;;;;7.82;2.20;;;;;;;;;;5032296;28;20057;-81
2022/10/05 04:18:54;;;;;;;3.30;1.73;;;;;;;;;;5031290;28;20076;-79
2022/10/05 04:21:26;;;;;;;5.43;2.05;;;;;;;;;;5031732;28;20056;-82
2022/10/05 04:24:03;;;;;;;6.88;2.30;;;;;;;;;;5032318;28;20049;-81
2022/10/05 04:26:34;;;;;;;6.65;2.03;;;;;;;;;;5032591;28;20045;-79
2022/10/05 04:29:00;;;;;;;5.97;2.10;;;;;;;;;;5031987;28;20050;-82
2022/10/05 04:31:35;;;;;;;8.55;2.03;;;;;;;;;;5032913;28;20255;-79
2022/10/05 04:34:05;;;;;;;7.68;2.20;;;;;;;;;;5031752;28;20100;-82
2022/10/05 04:36:52;;;;;;;3.97;2.00;;;;;;;;;;5031727;28;20501;-77
2022/10/05 04:39:42;;;;;;;5.28;2.35;;;;;;;;;;5013777;28;20045;-79
2022/10/05 04:42:08;;;;;;;5.93;2.10;;;;;;;;;;5018634;28;20052;-80
2022/10/05 04:44:43;;;;;;;7.95;2.25;;;;;;;;;;5032362;28;20049;-82
2022/10/05 04:47:28;;;;;;;4.32;2.55;;;;;;;;;;5032066;28;20050;-80
2022/10/05 04:50:04;;;;;;;7.72;2.17;;;;;;;;;;5032558;28;20049;-81
2022/10/05 04:52:37;;;;;;;4.60;2.50;;;;;;;;;;5037423;28;20063;-80
2022/10/05 04:55:36;;;;;;;9.77;2.65;;;;;;;;;;5032985;28;20395;-81
2022/10/05 04:58:21;;;;;;;8.57;2.22;;;;;;;;;;4980162;28;20060;-81
2022/10/05 05:00:50;;;;;;;7.43;2.40;;;;;;;;;;5051166;28;20049;-81
2022/10/05 05:03:22;;;;;;;8.77;2.40;;;;;;;;;;5050435;28;20413;-81
2022/10/05 05:05:55;;;;;;;6.65;2.40;;;;;;;;;;5052058;28;20049;-82
2022/10/05 05:08:55;;;;;;;9.82;2.60;;;;;;;;;;5051771;28;20071;-80
2022/10/05 05:11:33;;;;;;;7.28;2.50;;;;;;;;;;5052341;28;20059;-81
2022/10/05 05:14:15;;;;;;;10.63;2.45;;;;;;;;;;5050994;28;20066;-80
2022/10/05 05:16:56;;;;;;;7.50;2.42;;;;;;;;;;5053052;28;20220;-81
2022/10/05 05:19:26;;;;;;;6.15;2.30;;;;;;;;;;5054579;28;20060;-81
2022/10/05 05:22:04;;;;;;;16.10;3.15;;;;;;;;;;5054524;28;20053;-81
2022/10/05 05:24:33;;;;;;;6.30;2.70;;;;;;;;;;5050682;28;20045;-80
2022/10/05 05:27:02;;;;;;;9.48;2.72;;;;;;;;;;5050351;28;20357;-79
2022/10/05 05:29:46;;;;;;;10.15;2.55;;;;;;;;;;5051020;28;20064;-80
2022/10/05 05:32:32;;;;;;;9.55;2.72;;;;;;;;;;5054433;28;20063;-80
2022/10/05 05:35:16;;;;;;;7.13;3.13;;;;;;;;;;5054933;28;20056;-80
2022/10/05 05:37:52;;;;;;;7.80;3.15;;;;;;;;;;5055277;28;20060;-82
2022/10/05 05:40:31;;;;;;;7.75;3.08;;;;;;;;;;5065260;28;20044;-83
2022/10/05 05:43:16;;;;;;;12.27;2.95;;;;;;;;;;5074169;28;20101;-82
2022/10/05 05:45:47;;;;;;;9.80;3.17;;;;;;;;;;5067813;28;20052;-81
2022/10/05 05:48:20;;;;;;;9.63;4.10;;;;;;;;;;5053901;28;20579;-82
2022/10/05 05:50:56;;;;;;;10.85;4.68;;;;;;;;;;5053685;28;20489;-81
2022/10/05 05:53:27;;;;;;;9.48;3.95;;;;;;;;;;5054757;28;20049;-80
2022/10/05 05:56:13;;;;;;;11.40;3.95;;;;;;;;;;5054541;28;20055;-81
2022/10/05 05:58:44;;;;;;;9.77;3.28;;;;;;;;;;5025884;28;20048;-82
2022/10/05 06:01:25;;;;;;;9.55;3.80;;;;;;;;;;5034127;28;20109;-81
2022/10/05 06:04:11;;;;;;;11.80;3.25;;;;;;;;;;5033990;28;20057;-81
2022/10/05 06:06:41;;;;;;;6.25;3.20;;;;;;;;;;5033766;28;20045;-82
2022/10/05 06:09:31;;;;;;;10.50;3.30;;;;;;;;;;5049307;28;20060;-82
2022/10/05 06:12:03;;;;;;;15.10;3.22;;;;;;;;;;5035924;28;20076;-81
2022/10/05 06:14:44;;;;;;;9.23;3.92;;;;;;;;;;5016769;28;20093;-81
2022/10/05 06:17:13;;;;;;;9.82;4.57;;;;;;;;;;5032838;28;20054;-81
2022/10/05 06:19:41;;;;;;;6.32;3.30;;;;;;;;;;5032832;28;20068;-82
2022/10/05 06:22:14;;;;;;;7.80;3.42;;;;;;;;;;5033383;28;20049;-82
2022/10/05 06:24:43;;;;;;;8.63;3.47;;;;;;;;;;5034178;28;20045;-82
2022/10/05 06:27:15;;;;;;;9.80;4.20;;;;;;;;;;5033562;28;20056;-81
2022/10/05 06:29:41;;;;;;;9.32;3.67;;;;;;;;;;5036441;28;20444;-83
2022/10/05 06:32:14;;;;;;;12.90;3.92;;;;;;;;;;5033985;28;20563;-82
2022/10/05 06:34:55;;;;;;;11.23;4.18;;;;;;;;;;5015931;28;20049;-81
2022/10/05 06:37:39;;;;;;;9.60;4.65;;;;;;;;;;5032844;28;20060;-81
2022/10/05 06:40:25;;;;;;;12.05;4.18;;;;;;;;;;5032933;28;20101;-81
2022/10/05 06:43:01;;;;;;;5.03;2.95;;;;;;;;;;5031582;28;20045;-79
2022/10/05 06:45:40;;;;;;;12.73;4.28;;;;;;;;;;5033221;28;20053;-81
2022/10/05 06:48:06;;;;;;;11.98;4.55;;;;;;;;;;5033589;28;20092;-81
2022/10/05 06:50:36;;;;;;;10.05;3.78;;;;;;;;;;5032869;28;20100;-82
2022/10/05 06:53:23;;;;;;;15.85;4.35;;;;;;;;;;5032396;28;20442;-82
2022/10/05 06:56:21;;;;;;;13.55;4.13;;;;;;;;;;5032798;28;20056;-81
2022/10/05 06:58:48;;;;;;;12.88;3.92;;;;;;;;;;4960602;28;20054;-82
2022/10/05 07:01:20;;;;;;;11.15;4.10;;;;;;;;;;5033241;28;20053;-81
2022/10/05 07:04:04;;;;;;;14.32;4.18;;;;;;;;;;5031846;28;20056;-80
2022/10/05 07:06:42;;;;;;;11.63;4.30;;;;;;;;;;5032790;28;20048;-81
2022/10/05 07:09:17;;;;;;;12.45;4.20;;;;;;;;;;5033391;28;20057;-81
2022/10/05 07:11:57;;;;;;;12.45;3.90;;;;;;;;;;5033000;28;20053;-81
2022/10/05 07:14:36;;;;;;;12.20;3.95;;;;;;;;;;5033448;28;20054;-81
2022/10/05 07:17:02;;;;;;;12.35;3.88;;;;;;;;;;5014823;28;20060;-82
2022/10/05 07:19:51;;;;;;;6.35;3.67;;;;;;;;;;5032044;28;20063;-81
2022/10/05 07:22:36;;;;;;;8.38;4.05;;;;;;;;;;5033183;28;20067;-80
2022/10/05 07:25:10;;;;;;;7.95;3.25;;;;;;;;;;5016831;28;20053;-81
2022/10/05 07:27:43;;;;;;;10.43;3.40;;;;;;;;;;5037313;28;20041;-83
2022/10/05 07:30:17;;;;;;;10.68;3.33;;;;;;;;;;5047350;28;20046;-80
2022/10/05 07:33:04;;;;;;;5.65;2.00;;;;;;;;;;5049735;28;20037;-78
2022/10/05 07:38:19;;;;;;;5.10;1.95;;;;;;;;;;5037397;28;20053;-81
2022/10/05 07:41:12;;;;;;;4.60;1.80;;;;;;;;;;5034291;28;20049;-82
2022/10/05 07:43:41;;;;;;;3.60;1.75;;;;;;;;;;4995255;28;20060;-80
2022/10/05 07:46:36;;;;;;;5.78;1.90;;;;;;;;;;5018525;28;20103;-82
2022/10/05 07:49:21;;;;;;;6.88;1.73;;;;;;;;;;5032050;28;20249;-81
2022/10/05 07:51:50;;;;;;;3.25;1.60;;;;;;;;;;5032948;28;20049;-80
2022/10/05 07:54:17;;;;;;;4.32;1.70;;;;;;;;;;5014014;28;20465;-80
2022/10/05 07:56:45;;;;;;;3.10;1.65;;;;;;;;;;5031342;28;20059;-79
2022/10/05 07:59:15;;;;;;;4.68;2.28;;;;;;;;;;5045903;28;20052;-81
2022/10/05 08:01:46;;;;;;;5.82;1.52;;;;;;;;;;5051742;28;20052;-81
2022/10/05 08:04:18;;;;;;;4.63;1.73;;;;;;;;;;5051341;28;20432;-81
2022/10/05 08:06:51;;;;;;;1.98;1.10;;;;;;;;;;5033233;28;20044;-82
2022/10/05 08:09:17;;;;;;;2.45;1.27;;;;;;;;;;5052324;28;20055;-81
2022/10/05 08:11:53;;;;;;;3.95;1.65;;;;;;;;;;5051392;28;20523;-81
2022/10/05 08:14:27;;;;;;;3.80;1.20;;;;;;;;;;5052154;28;20049;-81
2022/10/05 08:16:56;;;;;;;3.13;1.30;;;;;;;;;;5050164;28;20055;-81
2022/10/05 08:19:28;;;;;;;4.28;1.13;;;;;;;;;;5050996;28;20041;-79
2022/10/05 08:21:57;;;;;;;6.07;1.40;;;;;;;;;;5051678;28;20120;-81
2022/10/05 08:24:26;;;;;;;2.50;1.33;;;;;;;;;;5051985;28;20061;-80
2022/10/05 08:27:22;;;;;;;5.57;1.30;;;;;;;;;;5052011;28;20330;-80
2022/10/05 08:29:51;;;;;;;2.63;1.37;;;;;;;;;;5031168;28;20053;-81
2022/10/05 08:32:17;;;;;;;3.75;1.30;;;;;;;;;;5052444;28;20459;-79
2022/10/05 08:34:53;;;;;;;3.60;1.30;;;;;;;;;;5051488;28;20059;-80
2022/10/05 08:37:19;;;;;;;;;;;;;;;;;;5050615;28;20160;-82
2022/10/05 08:40:04;;;;;;;4.15;1.20;;;;;;;;;;5034464;28;19953;-81
2022/10/05 08:42:43;;;;;;;3.25;1.38;;;;;;;;;;5032397;28;20051;-81
2022/10/05 08:45:09;;;;;;;4.30;1.30;;;;;;;;;;5051491;28;20048;-79
2022/10/05 08:47:54;;;;;;;2.78;0.90;;;;;;;;;;5050813;28;20048;-80
2022/10/05 08:50:30;;;;;;;3.75;1.08;;;;;;;;;;5050501;28;20074;-79
2022/10/05 08:53:02;;;;;;;1.90;1.08;;;;;;;;;;5051897;28;20059;-81
2022/10/05 08:55:34;;;;;;;3.38;1.30;;;;;;;;;;5052165;28;20053;-81
2022/10/05 08:58:39;;;;;;;4.03;1.20;;;;;;;;;;5046216;28;20045;-80
2022/10/05 09:01:26;;;;;;;4.32;1.30;;;;;;;;;;4935706;29;20051;-83
2022/10/05 09:04:03;;;;;;;2.50;1.30;;;;;;;;;;4941510;29;20059;-80
2022/10/05 09:06:49;;;;;;;3.30;1.33;;;;;;;;;;5008644;28;20041;-80
2022/10/05 09:09:16;;;;;;;3.28;1.23;;;;;;;;;;5032891;28;20132;-79
2022/10/05 09:11:52;;;;;;;3.75;1.40;;;;;;;;;;5032252;28;20068;-79
2022/10/05 09:14:41;;;;;;;3.10;1.25;;;;;;;;;;5032854;28;20061;-80
2022/10/05 09:17:10;;;;;;;2.50;1.40;;;;;;;;;;4986913;28;20055;-80
2022/10/05 09:20:06;;;;;;;2.92;1.13;;;;;;;;;;5036483;28;20049;-80
2022/10/05 09:22:39;;;;;;;3.20;1.27;;;;;;;;;;4949165;28;20146;-79
2022/10/05 09:25:24;;;;;;;4.22;1.30;;;;;;;;;;5038010;28;20126;-80
2022/10/05 09:27:55;;;;;;;2.53;1.30;;;;;;;;;;5020854;28;20059;-80
2022/10/05 09:30:40;;;;;;;3.08;1.45;;;;;;;;;;5038599;28;20050;-79
2022/10/05 09:33:12;;;;;;;2.60;1.23;;;;;;;;;;5043938;28;20053;-79
2022/10/05 09:35:41;;;;;;;2.58;1.10;;;;;;;;;;5042089;28;20639;-81
2022/10/05 09:38:14;;;;;;;4.88;1.80;;;;;;;;;;5042779;28;20223;-80
2022/10/05 09:40:46;;;;;;;3.42;1.63;;;;;;;;;;5041144;28;20045;-80
2022/10/05 09:43:21;;;;;;;2.80;1.45;;;;;;;;;;5014971;28;20072;-80
2022/10/05 09:45:58;;;;;;;6.63;1.53;;;;;;;;;;5015627;28;20045;-81
2022/10/05 09:48:24;;;;;;;3.30;1.38;;;;;;;;;;5031721;28;20050;-80
2022/10/05 09:51:03;;;;;;;4.82;1.58;;;;;;;;;;5014176;28;20497;-79
2022/10/05 09:53:39;;;;;;;5.57;1.92;;;;;;;;;;5031039;28;20092;-81
2022/10/05 09:56:08;;;;;;;3.78;1.90;;;;;;;;;;5014190;28;20112;-80
2022/10/05 09:58:34;;;;;;;3.85;1.77;;;;;;;;;;5038999;28;20052;-79
2022/10/05 10:01:06;;;;;;;3.20;1.63;;;;;;;;;;5051302;28;20049;-80
2022/10/05 10:04:00;;;;;;;2.67;1.60;;;;;;;;;;5051777;28;20095;-80
2022/10/05 10:06:32;;;;;;;3.35;1.70;;;;;;;;;;5051814;28;20122;-80
2022/10/05 10:09:07;;;;;;;6.65;1.80;;;;;;;;;;5053692;28;20045;-81
2022/10/05 10:11:40;;;;;;;6.57;1.95;;;;;;;;;;5033774;28;20056;-80
2022/10/05 10:14:21;;;;;;;5.13;2.00;;;;;;;;;;5053435;28;20421;-80
2022/10/05 10:17:00;;;;;;;4.28;2.00;;;;;;;;;;5050751;28;20114;-78
2022/10/05 10:19:39;;;;;;;6.32;1.65;;;;;;;;;;5034460;28;20467;-80
2022/10/05 10:22:24;;;;;;;4.15;1.65;;;;;;;;;;5052826;28;20434;-79
2022/10/05 10:25:01;;;;;;;4.30;1.45;;;;;;;;;;5053920;28;20053;-78
2022/10/05 10:27:55;;;;;;;3.08;1.60;;;;;;;;;;5052507;28;20045;-79
2022/10/05 10:30:24;;;;;;;4.18;1.50;;;;;;;;;;5054414;28;20049;-79
2022/10/05 10:32:56;;;;;;;4.75;1.55;;;;;;;;;;5054840;28;20095;-80
2022/10/05 10:35:40;;;;;;;5.03;1.55;;;;;;;;;;5054152;28;20109;-80
2022/10/05 10:38:22;;;;;;;2.65;1.38;;;;;;;;;;5053662;28;20053;-79
2022/10/05 10:41:07;;;;;;;5.57;1.67;;;;;;;;;;5054486;28;20045;-80
2022/10/05 10:43:53;;;;;;;4.37;1.50;;;;;;;;;;5053516;28;20068;-79
2022/10/05 10:46:30;;;;;;;1.90;1.43;;;;;;;;;;5054186;28;20060;-79
2022/10/05 10:49:15;;;;;;;4.63;1.27;;;;;;;;;;5052549;28;20337;-79
2022/10/05 10:51:57;;;;;;;6.90;1.30;;;;;;;;;;5053535;28;20061;-81
2022/10/05 10:54:26;;;;;;;2.95;1.40;;;;;;;;;;5053349;28;20052;-79
2022/10/05 10:56:54;;;;;;;6.93;1.42;;;;;;;;;;5051922;28;20075;-79
2022/10/05 10:59:23;;;;;;;5.40;1.30;;;;;;;;;;5037636;28;20133;-79
2022/10/05 11:02:16;;;;;;;2.83;1.50;;;;;;;;;;5033427;28;20092;-79
2022/10/05 11:04:57;;;;;;;3.92;1.48;;;;;;;;;;5033973;28;20049;-78
2022/10/05 11:07:26;;;;;;;1.50;1.10;;;;;;;;;;5034616;28;20182;-79
2022/10/05 11:09:52;;;;;;;3.13;1.52;;;;;;;;;;5017524;28;20045;-81
2022/10/05 11:12:28;;;;;;;1.67;1.35;;;;;;;;;;5035075;28;20099;-80
2022/10/05 11:15:18;;;;;;;3.45;1.50;;;;;;;;;;5034903;28;20103;-79
2022/10/05 11:17:44;;;;;;;3.03;1.50;;;;;;;;;;5034700;28;20056;-80
2022/10/05 11:20:20;;;;;;;2.13;1.60;;;;;;;;;;5035087;28;20045;-78
2022/10/05 11:22:46;;;;;;;;;;;;;;;;;;5035544;28;20045;-78
2022/10/05 11:25:16;;;;;;;4.00;1.38;;;;;;;;;;5036760;28;19921;-79
2022/10/05 11:28:01;;;;;;;2.95;1.70;;;;;;;;;;5017066;28;20536;-78
2022/10/05 11:30:35;;;;;;;3.73;1.93;;;;;;;;;;5036350;28;20057;-80
2022/10/05 11:33:17;;;;;;;4.60;2.00;;;;;;;;;;5018083;28;20352;-78
2022/10/05 11:35:55;;;;;;;3.85;1.88;;;;;;;;;;5035966;28;20056;-78
2022/10/05 11:38:41;;;;;;;2.60;1.70;;;;;;;;;;5034856;28;20132;-79
2022/10/05 11:41:24;;;;;;;2.47;1.70;;;;;;;;;;5016693;28;20095;-79
2022/10/05 11:44:08;;;;;;;3.35;1.60;;;;;;;;;;5034839;28;20413;-78
2022/10/05 11:46:38;;;;;;;5.20;1.52;;;;;;;;;;5033971;28;20061;-79
2022/10/05 11:49:07;;;;;;;3.47;1.58;;;;;;;;;;5034496;28;20050;-79
2022/10/05 11:51:34;;;;;;;3.47;1.70;;;;;;;;;;5035038;28;20417;-78
2022/10/05 11:54:17;;;;;;;3.05;1.50;;;;;;;;;;5035039;28;20056;-77
2022/10/05 11:56:47;;;;;;;3.30;1.73;;;;;;;;;;5035212;28;20057;-79
2022/10/05 11:59:28;;;;;;;2.78;1.50;;;;;;;;;;5035731;28;20391;-79
2022/10/05 12:02:13;;;;;;;6.38;1.77;;;;;;;;;;5035972;28;20053;-79
2022/10/05 12:04:55;;;;;;;2.75;1.73;;;;;;;;;;5034675;28;20053;-79
2022/10/05 12:07:28;;;;;;;3.60;1.67;;;;;;;;;;5035343;28;20381;-80
2022/10/05 12:12:44;;;;;;;4.32;1.65;;;;;;;;;;5037117;28;20076;-79
2022/10/05 12:15:17;;;;;;;6.38;1.80;;;;;;;;;;5038204;28;20055;-79
2022/10/05 12:17:51;;;;;;;2.85;1.80;;;;;;;;;;5024053;28;20148;-78
2022/10/05 12:20:17;;;;;;;4.88;1.85;;;;;;;;;;5048211;28;20040;-78
2022/10/05 12:22:47;;;;;;;2.40;1.58;;;;;;;;;;5036485;28;20045;-78
2022/10/05 12:25:20;;;;;;;3.20;1.60;;;;;;;;;;5050769;28;20105;-79
2022/10/05 12:27:50;;;;;;;5.45;1.40;;;;;;;;;;5032210;28;20483;-80
2022/10/05 12:30:35;;;;;;;4.97;1.50;;;;;;;;;;5035054;28;20061;-80
2022/10/05 12:33:02;;;;;;;7.80;1.80;;;;;;;;;;5033359;28;20049;-79
2022/10/05 12:35:34;;;;;;;2.08;1.30;;;;;;;;;;5034781;28;20046;-79
2022/10/05 12:38:21;;;;;;;4.25;1.90;;;;;;;;;;5033463;28;20128;-81
2022/10/05 12:40:51;;;;;;;2.92;1.70;;;;;;;;;;5016313;28;20046;-79
2022/10/05 12:43:20;;;;;;;4.70;1.60;;;;;;;;;;5046535;28;20037;-81
2022/10/05 12:45:52;;;;;;;3.17;1.60;;;;;;;;;;5051637;28;20114;-79
2022/10/05 12:48:29;;;;;;;5.70;1.90;;;;;;;;;;5050615;28;20045;-79
2022/10/05 12:51:03;;;;;;;2.97;1.77;;;;;;;;;;5042419;28;20042;-78
2022/10/05 12:53:47;;;;;;;5.10;1.52;;;;;;;;;;5037695;28;20049;-78
2022/10/05 12:56:22;;;;;;;2.13;1.80;;;;;;;;;;5033873;28;20125;-79
2022/10/05 12:58:55;;;;;;;3.75;1.77;;;;;;;;;;5025432;28;20433;-78
2022/10/05 13:01:36;;;;;;;4.85;1.60;;;;;;;;;;5051993;28;20055;-77
2022/10/05 13:04:03;;;;;;;10.75;1.70;;;;;;;;;;5052501;28;20056;-77
2022/10/05 13:06:56;;;;;;;5.93;1.70;;;;;;;;;;5035042;28;20084;-77
2022/10/05 13:09:22;;;;;;;4.88;1.70;;;;;;;;;;5015034;28;20045;-79
2022/10/05 13:11:54;;;;;;;3.88;1.70;;;;;;;;;;5051702;28;20188;-79
2022/10/05 13:14:39;;;;;;;6.10;1.80;;;;;;;;;;5052741;28;20049;-80
2022/10/05 13:17:14;;;;;;;2.72;1.50;;;;;;;;;;5037128;28;20083;-81
2022/10/05 13:19:49;;;;;;;4.72;1.50;;;;;;;;;;5032640;28;20060;-79
2022/10/05 13:22:31;;;;;;;4.82;1.50;;;;;;;;;;5032776;28;20049;-79
2022/10/05 13:25:16;;;;;;;5.68;1.80;;;;;;;;;;5032566;28;20045;-79
2022/10/05 13:27:50;;;;;;;3.03;1.40;;;;;;;;;;5032339;28;20052;-80
2022/10/05 13:30:20;;;;;;;4.23;1.20;;;;;;;;;;5016121;28;20136;-80
2022/10/05 13:33:00;;;;;;;4.97;1.60;;;;;;;;;;5031434;28;20049;-79
2022/10/05 13:35:42;;;;;;;2.10;1.40;;;;;;;;;;5031464;28;20413;-79
2022/10/05 13:38:27;;;;;;;3.28;1.30;;;;;;;;;;5030343;28;20079;-80
2022/10/05 13:41:03;;;;;;;4.23;1.40;;;;;;;;;;5031635;28;20051;-80
2022/10/05 13:43:42;;;;;;;3.13;1.35;;;;;;;;;;5031159;28;20284;-78
2022/10/05 13:46:09;;;;;;;1.70;1.15;;;;;;;;;;5032340;28;20076;-80
2022/10/05 13:48:54;;;;;;;4.53;1.35;;;;;;;;;;5031155;28;20084;-79
2022/10/05 13:51:22;;;;;;;3.10;1.23;;;;;;;;;;5015592;28;20235;-79
2022/10/05 13:53:54;;;;;;;5.10;1.30;;;;;;;;;;5035743;28;20067;-80
2022/10/05 13:56:27;;;;;;;4.32;1.30;;;;;;;;;;5036118;28;20061;-79
2022/10/05 13:59:14;;;;;;;1.95;1.10;;;;;;;;;;5046361;28;20049;-80
2022/10/05 14:01:42;;;;;;;3.17;1.38;;;;;;;;;;5011153;28;20389;-79
2022/10/05 14:04:20;;;;;;;2.92;1.35;;;;;;;;;;5055206;28;20400;-79
2022/10/05 14:06:47;;;;;;;4.05;1.10;;;;;;;;;;5055199;28;20049;-79
2022/10/05 14:09:20;;;;;;;2.08;1.30;;;;;;;;;;5055338;28;20288;-80
2022/10/05 14:11:48;;;;;;;4.40;1.40;;;;;;;;;;5055351;28;20053;-79
2022/10/05 14:14:22;;;;;;;2.47;1.35;;;;;;;;;;5040916;28;20057;-80
2022/10/05 14:16:51;;;;;;;5.03;1.20;;;;;;;;;;5024721;28;20131;-79
2022/10/05 14:19:20;;;;;;;3.67;1.75;;;;;;;;;;5035891;28;20054;-79
2022/10/05 14:21:51;;;;;;;3.05;1.55;;;;;;;;;;5035964;28;20049;-80
2022/10/05 14:24:26;;;;;;;7.32;2.00;;;;;;;;;;5035419;28;20045;-80
2022/10/05 14:27:17;;;;;;;3.30;1.90;;;;;;;;;;5033642;28;20137;-80
2022/10/05 14:29:43;;;;;;;3.55;1.90;;;;;;;;;;5034944;28;20075;-80
2022/10/05 14:32:14;;;;;;;3.92;1.67;;;;;;;;;;5034286;28;20057;-78
2022/10/05 14:34:43;;;;;;;7.88;2.10;;;;;;;;;;5032877;28;20053;-79
2022/10/05 14:37:30;;;;;;;5.07;1.75;;;;;;;;;;5036728;28;20053;-80
2022/10/05 14:40:18;;;;;;;3.35;1.90;;;;;;;;;;5040660;28;20125;-79
2022/10/05 14:42:45;;;;;;;4.18;1.70;;;;;;;;;;5036364;28;20049;-80
2022/10/05 14:45:23;;;;;;;3.72;1.50;;;;;;;;;;5038574;28;20227;-80
2022/10/05 14:47:50;;;;;;;2.70;1.30;;;;;;;;;;5039639;28;20049;-80
2022/10/05 14:50:19;;;;;;;3.40;1.52;;;;;;;;;;5040000;28;20045;-79
2022/10/05 14:53:02;;;;;;;2.40;1.55;;;;;;;;;;5041512;28;20187;-80
2022/10/05 14:55:42;;;;;;;4.00;1.65;;;;;;;;;;5015967;28;20082;-78
2022/10/05 14:58:18;;;;;;;4.78;1.60;;;;;;;;;;5023081;28;20104;-78
2022/10/05 15:00:49;;;;;;;3.63;1.77;;;;;;;;;;5033895;28;20049;-79
2022/10/05 15:03:30;;;;;;;3.25;1.70;;;;;;;;;;5028676;28;20264;-79
2022/10/05 15:05:58;;;;;;;3.42;1.50;;;;;;;;;;5030767;28;20049;-80
2022/10/05 15:08:25;;;;;;;7.57;1.95;;;;;;;;;;5030581;28;20065;-79
2022/10/05 15:10:55;;;;;;;6.32;1.40;;;;;;;;;;5011957;28;20049;-79
2022/10/05 15:13:24;;;;;;;6.47;1.92;;;;;;;;;;5029718;28;20140;-78
2022/10/05 15:15:53;;;;;;;2.08;1.52;;;;;;;;;;5028983;28;20329;-79
2022/10/05 15:18:19;;;;;;;3.45;1.52;;;;;;;;;;5011069;28;20084;-79
2022/10/05 15:20:55;;;;;;;6.65;1.65;;;;;;;;;;5028980;28;20384;-79
2022/10/05 15:23:33;;;;;;;3.42;1.58;;;;;;;;;;5009965;28;20049;-79
2022/10/05 15:26:06;;;;;;;6.03;1.70;;;;;;;;;;5029320;28;20065;-78
2022/10/05 15:28:33;;;;;;;1.58;1.38;;;;;;;;;;5008614;28;20057;-79
2022/10/05 15:31:02;;;;;;;7.35;1.75;;;;;;;;;;5011488;28;20108;-79
2022/10/05 15:33:32;;;;;;;2.40;1.50;;;;;;;;;;5028773;28;20054;-79
2022/10/05 15:36:08;;;;;;;5.43;1.50;;;;;;;;;;5009055;28;20064;-80
2022/10/05 15:38:58;;;;;;;4.60;1.60;;;;;;;;;;5027838;28;20084;-80